LIRS/GRS METAR and TAF weather

Enter ICAO airport designator
Station Type Date Time Source
LIRS METAR 2022/11/27 07:55 UTC NOAA

LIRS 270755Z 35009KT CAVOK 12/07 Q1025


Station Type Date Time Source
LIRS Decoded METAR 2022/11/27 07:55 UTC NOAA

Grosseto, Italy (LIRS) 42-45N 011-04E 7M
Nov 27, 2022 - 02:55 AM EST / 2022.11.27 0755 UTC
Wind: from the N (350 degrees) at 10 MPH (9 KT):0
Visibility: greater than 7 mile(s):0
Temperature: 53 F (12 C)
Dew Point: 44 F (7 C)
Relative Humidity: 71%
Pressure (altimeter): 30.27 in. Hg (1025 hPa)
ob: LIRS 270755Z 35009KT CAVOK 12/07 Q1025
cycle: 8

Station Type Date Time Source
LIRS TAF 2018/06/29 09:24 UTC NOAA

TAF TAF LIRS 290800Z 2909/2921 VRB03KT 9999 FEW030
BECMG 2911/2913 24015KT

Example: see airport list